sensor_id;sensor_type;location;lat;lon;timestamp;P1;durP1;ratioP1;P2;durP2;ratioP2
35304;SDS011;26433;48.034;-1.764;2022-10-16T05:05:02;3.12;;;1.35;;
35304;SDS011;26433;48.034;-1.764;2022-10-16T05:10:06;2.40;;;0.95;;
35304;SDS011;26433;48.034;-1.764;2022-10-16T05:15:10;4.28;;;1.40;;
35304;SDS011;26433;48.034;-1.764;2022-10-16T05:20:15;1.70;;;0.90;;
35304;SDS011;26433;48.034;-1.764;2022-10-16T05:25:18;2.20;;;1.17;;
35304;SDS011;26433;48.034;-1.764;2022-10-16T05:30:22;3.67;;;1.10;;
35304;SDS011;26433;48.034;-1.764;2022-10-16T05:35:27;2.67;;;1.23;;
35304;SDS011;26433;48.034;-1.764;2022-10-16T05:40:30;6.20;;;1.70;;
35304;SDS011;26433;48.034;-1.764;2022-10-16T05:45:34;11.35;;;2.30;;
35304;SDS011;26433;48.034;-1.764;2022-10-16T05:50:39;3.10;;;1.48;;
35304;SDS011;26433;48.034;-1.764;2022-10-16T05:55:42;1.73;;;0.55;;
35304;SDS011;26433;48.034;-1.764;2022-10-16T06:00:55;3.55;;;1.37;;
35304;SDS011;26433;48.034;-1.764;2022-10-16T06:06:00;2.17;;;1.35;;
35304;SDS011;26433;48.034;-1.764;2022-10-16T06:11:13;2.93;;;1.67;;
35304;SDS011;26433;48.034;-1.764;2022-10-16T06:16:18;2.53;;;1.35;;
35304;SDS011;26433;48.034;-1.764;2022-10-16T06:21:24;3.00;;;1.53;;
35304;SDS011;26433;48.034;-1.764;2022-10-16T06:26:29;5.87;;;1.75;;
35304;SDS011;26433;48.034;-1.764;2022-10-16T06:31:34;2.65;;;1.33;;
35304;SDS011;26433;48.034;-1.764;2022-10-16T06:36:39;1.80;;;1.20;;
35304;SDS011;26433;48.034;-1.764;2022-10-16T06:41:42;2.65;;;1.20;;
35304;SDS011;26433;48.034;-1.764;2022-10-16T06:46:48;2.37;;;0.90;;
35304;SDS011;26433;48.034;-1.764;2022-10-16T06:51:54;3.97;;;1.42;;
35304;SDS011;26433;48.034;-1.764;2022-10-16T06:56:58;2.65;;;0.85;;
35304;SDS011;26433;48.034;-1.764;2022-10-16T07:02:03;2.22;;;0.70;;
35304;SDS011;26433;48.034;-1.764;2022-10-16T07:07:08;0.77;;;0.62;;
35304;SDS011;26433;48.034;-1.764;2022-10-16T07:12:12;1.00;;;0.82;;
35304;SDS011;26433;48.034;-1.764;2022-10-16T07:17:15;1.25;;;0.65;;
35304;SDS011;26433;48.034;-1.764;2022-10-16T07:22:20;0.80;;;0.50;;
35304;SDS011;26433;48.034;-1.764;2022-10-16T07:27:25;1.85;;;0.70;;
35304;SDS011;26433;48.034;-1.764;2022-10-16T07:32:28;2.45;;;0.73;;
35304;SDS011;26433;48.034;-1.764;2022-10-16T07:37:34;0.68;;;0.45;;
35304;SDS011;26433;48.034;-1.764;2022-10-16T07:42:37;4.40;;;0.60;;
35304;SDS011;26433;48.034;-1.764;2022-10-16T07:47:41;1.13;;;0.60;;
35304;SDS011;26433;48.034;-1.764;2022-10-16T07:52:46;0.85;;;0.35;;
35304;SDS011;26433;48.034;-1.764;2022-10-16T07:57:50;1.35;;;0.22;;
35304;SDS011;26433;48.034;-1.764;2022-10-16T08:02:54;0.53;;;0.23;;
35304;SDS011;26433;48.034;-1.764;2022-10-16T08:08:00;0.15;;;0.15;;
35304;SDS011;26433;48.034;-1.764;2022-10-16T08:13:04;0.25;;;0.17;;
35304;SDS011;26433;48.034;-1.764;2022-10-16T08:23:14;0.10;;;0.10;;
35304;SDS011;26433;48.034;-1.764;2022-10-16T08:28:18;0.32;;;0.10;;
35304;SDS011;26433;48.034;-1.764;2022-10-16T08:33:22;0.30;;;0.10;;
35304;SDS011;26433;48.034;-1.764;2022-10-16T08:38:27;0.07;;;0.07;;
35304;SDS011;26433;48.034;-1.764;2022-10-16T08:43:35;0.30;;;0.30;;
35304;SDS011;26433;48.034;-1.764;2022-10-16T08:48:50;0.17;;;0.10;;
35304;SDS011;26433;48.034;-1.764;2022-10-16T08:53:57;0.25;;;0.10;;
35304;SDS011;26433;48.034;-1.764;2022-10-16T08:59:03;1.65;;;0.22;;
35304;SDS011;26433;48.034;-1.764;2022-10-16T09:04:25;0.62;;;0.15;;
35304;SDS011;26433;48.034;-1.764;2022-10-16T09:09:52;0.10;;;0.10;;
35304;SDS011;26433;48.034;-1.764;2022-10-16T09:15:07;0.20;;;0.10;;
35304;SDS011;26433;48.034;-1.764;2022-10-16T09:20:23;0.00;;;0.00;;
35304;SDS011;26433;48.034;-1.764;2022-10-16T09:25:34;0.08;;;0.08;;
35304;SDS011;26433;48.034;-1.764;2022-10-16T09:30:40;1.40;;;0.20;;
35304;SDS011;26433;48.034;-1.764;2022-10-16T09:35:44;0.17;;;0.17;;
35304;SDS011;26433;48.034;-1.764;2022-10-16T09:40:51;0.25;;;0.10;;
35304;SDS011;26433;48.034;-1.764;2022-10-16T09:46:04;0.00;;;0.00;;
35304;SDS011;26433;48.034;-1.764;2022-10-16T09:51:16;0.95;;;0.25;;
35304;SDS011;26433;48.034;-1.764;2022-10-16T09:56:23;0.05;;;0.00;;
35304;SDS011;26433;48.034;-1.764;2022-10-16T10:01:30;0.37;;;0.32;;
35304;SDS011;26433;48.034;-1.764;2022-10-16T10:06:40;1.42;;;0.37;;
35304;SDS011;26433;48.034;-1.764;2022-10-16T10:11:52;1.20;;;0.45;;
35304;SDS011;26433;48.034;-1.764;2022-10-16T10:17:11;2.90;;;0.47;;
35304;SDS011;26433;48.034;-1.764;2022-10-16T10:22:22;1.35;;;0.37;;
35304;SDS011;26433;48.034;-1.764;2022-10-16T10:27:35;3.30;;;0.52;;
35304;SDS011;26433;48.034;-1.764;2022-10-16T10:32:44;0.05;;;0.00;;
35304;SDS011;26433;48.034;-1.764;2022-10-16T10:38:00;0.10;;;0.05;;
35304;SDS011;26433;48.034;-1.764;2022-10-16T10:43:15;0.10;;;0.10;;
35304;SDS011;26433;48.034;-1.764;2022-10-16T10:48:43;0.60;;;0.22;;
35304;SDS011;26433;48.034;-1.764;2022-10-16T10:53:59;0.10;;;0.10;;
35304;SDS011;26433;48.034;-1.764;2022-10-16T10:59:16;0.40;;;0.17;;
35304;SDS011;26433;48.034;-1.764;2022-10-16T11:04:37;0.37;;;0.10;;
35304;SDS011;26433;48.034;-1.764;2022-10-16T11:09:57;0.95;;;0.55;;
35304;SDS011;26433;48.034;-1.764;2022-10-16T11:15:07;0.60;;;0.52;;
35304;SDS011;26433;48.034;-1.764;2022-10-16T11:20:18;0.35;;;0.28;;
35304;SDS011;26433;48.034;-1.764;2022-10-16T11:25:26;5.35;;;1.20;;
35304;SDS011;26433;48.034;-1.764;2022-10-16T11:30:34;1.60;;;0.45;;
35304;SDS011;26433;48.034;-1.764;2022-10-16T11:40:52;0.20;;;0.13;;
35304;SDS011;26433;48.034;-1.764;2022-10-16T11:46:03;0.70;;;0.43;;
35304;SDS011;26433;48.034;-1.764;2022-10-16T11:51:14;0.80;;;0.28;;
35304;SDS011;26433;48.034;-1.764;2022-10-16T11:56:24;1.65;;;0.65;;
35304;SDS011;26433;48.034;-1.764;2022-10-16T12:01:31;1.90;;;0.55;;
35304;SDS011;26433;48.034;-1.764;2022-10-16T12:06:42;0.95;;;0.30;;
35304;SDS011;26433;48.034;-1.764;2022-10-16T12:11:50;1.70;;;0.47;;
35304;SDS011;26433;48.034;-1.764;2022-10-16T12:16:55;0.45;;;0.32;;
35304;SDS011;26433;48.034;-1.764;2022-10-16T12:22:01;1.95;;;0.62;;
35304;SDS011;26433;48.034;-1.764;2022-10-16T12:27:17;0.47;;;0.20;;
35304;SDS011;26433;48.034;-1.764;2022-10-16T12:32:29;2.12;;;0.40;;
35304;SDS011;26433;48.034;-1.764;2022-10-16T12:37:48;0.60;;;0.50;;
35304;SDS011;26433;48.034;-1.764;2022-10-16T12:42:52;0.50;;;0.40;;
35304;SDS011;26433;48.034;-1.764;2022-10-16T12:47:57;3.93;;;0.87;;
35304;SDS011;26433;48.034;-1.764;2022-10-16T12:53:03;0.80;;;0.40;;
35304;SDS011;26433;48.034;-1.764;2022-10-16T12:58:24;1.58;;;0.80;;
35304;SDS011;26433;48.034;-1.764;2022-10-16T13:03:44;0.45;;;0.40;;
35304;SDS011;26433;48.034;-1.764;2022-10-16T13:09:09;0.85;;;0.37;;
35304;SDS011;26433;48.034;-1.764;2022-10-16T13:14:26;0.75;;;0.30;;
35304;SDS011;26433;48.034;-1.764;2022-10-16T13:19:44;0.60;;;0.47;;
35304;SDS011;26433;48.034;-1.764;2022-10-16T13:25:00;1.50;;;0.87;;
35304;SDS011;26433;48.034;-1.764;2022-10-16T13:30:16;0.28;;;0.28;;
35304;SDS011;26433;48.034;-1.764;2022-10-16T13:35:24;0.95;;;0.45;;
35304;SDS011;26433;48.034;-1.764;2022-10-16T13:40:29;0.35;;;0.32;;
35304;SDS011;26433;48.034;-1.764;2022-10-16T13:45:33;0.75;;;0.20;;
35304;SDS011;26433;48.034;-1.764;2022-10-16T13:50:38;0.30;;;0.30;;
35304;SDS011;26433;48.034;-1.764;2022-10-16T13:55:41;2.80;;;0.65;;
35304;SDS011;26433;48.034;-1.764;2022-10-16T14:00:52;0.97;;;0.20;;
35304;SDS011;26433;48.034;-1.764;2022-10-16T14:06:00;0.57;;;0.40;;
35304;SDS011;26433;48.034;-1.764;2022-10-16T14:11:06;0.90;;;0.52;;
35304;SDS011;26433;48.034;-1.764;2022-10-16T14:16:11;0.15;;;0.15;;
35304;SDS011;26433;48.034;-1.764;2022-10-16T14:21:23;0.28;;;0.10;;
35304;SDS011;26433;48.034;-1.764;2022-10-16T14:26:28;0.15;;;0.05;;
35304;SDS011;26433;48.034;-1.764;2022-10-16T14:31:32;1.02;;;0.40;;
35304;SDS011;26433;48.034;-1.764;2022-10-16T14:36:40;0.25;;;0.25;;
35304;SDS011;26433;48.034;-1.764;2022-10-16T14:41:45;0.43;;;0.30;;
35304;SDS011;26433;48.034;-1.764;2022-10-16T14:46:50;0.15;;;0.15;;
35304;SDS011;26433;48.034;-1.764;2022-10-16T14:51:55;0.37;;;0.13;;
35304;SDS011;26433;48.034;-1.764;2022-10-16T14:57:00;1.37;;;0.50;;
35304;SDS011;26433;48.034;-1.764;2022-10-16T15:02:15;0.10;;;0.10;;
35304;SDS011;26433;48.034;-1.764;2022-10-16T15:07:25;0.17;;;0.17;;
35304;SDS011;26433;48.034;-1.764;2022-10-16T15:12:29;0.13;;;0.13;;
35304;SDS011;26433;48.034;-1.764;2022-10-16T15:17:32;0.10;;;0.10;;
35304;SDS011;26433;48.034;-1.764;2022-10-16T15:22:37;0.20;;;0.20;;
35304;SDS011;26433;48.034;-1.764;2022-10-16T15:27:41;0.25;;;0.20;;
35304;SDS011;26433;48.034;-1.764;2022-10-16T15:32:45;0.90;;;0.47;;
35304;SDS011;26433;48.034;-1.764;2022-10-16T15:37:50;0.10;;;0.10;;
35304;SDS011;26433;48.034;-1.764;2022-10-16T15:42:53;0.40;;;0.40;;
35304;SDS011;26433;48.034;-1.764;2022-10-16T15:47:57;0.68;;;0.25;;
35304;SDS011;26433;48.034;-1.764;2022-10-16T15:53:02;0.47;;;0.47;;
35304;SDS011;26433;48.034;-1.764;2022-10-16T15:58:06;0.88;;;0.75;;
35304;SDS011;26433;48.034;-1.764;2022-10-16T16:03:09;0.60;;;0.50;;
35304;SDS011;26433;48.034;-1.764;2022-10-16T16:08:15;0.47;;;0.40;;
35304;SDS011;26433;48.034;-1.764;2022-10-16T16:13:18;0.20;;;0.20;;
35304;SDS011;26433;48.034;-1.764;2022-10-16T16:18:22;0.23;;;0.23;;
35304;SDS011;26433;48.034;-1.764;2022-10-16T16:28:31;0.20;;;0.15;;
35304;SDS011;26433;48.034;-1.764;2022-10-16T16:33:35;0.50;;;0.50;;
35304;SDS011;26433;48.034;-1.764;2022-10-16T16:38:40;0.20;;;0.20;;
35304;SDS011;26433;48.034;-1.764;2022-10-16T16:43:44;2.08;;;0.30;;
35304;SDS011;26433;48.034;-1.764;2022-10-16T16:48:48;0.70;;;0.40;;
35304;SDS011;26433;48.034;-1.764;2022-10-16T16:53:55;0.52;;;0.43;;
35304;SDS011;26433;48.034;-1.764;2022-10-16T16:58:59;0.60;;;0.45;;
35304;SDS011;26433;48.034;-1.764;2022-10-16T17:04:03;1.87;;;0.30;;
35304;SDS011;26433;48.034;-1.764;2022-10-16T17:09:10;10.90;;;0.73;;
35304;SDS011;26433;48.034;-1.764;2022-10-16T17:14:16;1.10;;;0.57;;
35304;SDS011;26433;48.034;-1.764;2022-10-16T17:19:20;0.47;;;0.20;;
35304;SDS011;26433;48.034;-1.764;2022-10-16T17:24:25;0.47;;;0.47;;
35304;SDS011;26433;48.034;-1.764;2022-10-16T17:29:29;0.62;;;0.40;;
35304;SDS011;26433;48.034;-1.764;2022-10-16T17:34:33;2.00;;;1.17;;
35304;SDS011;26433;48.034;-1.764;2022-10-16T17:39:38;1.20;;;0.90;;
35304;SDS011;26433;48.034;-1.764;2022-10-16T17:44:43;2.53;;;0.88;;
35304;SDS011;26433;48.034;-1.764;2022-10-16T17:49:46;1.35;;;1.15;;
35304;SDS011;26433;48.034;-1.764;2022-10-16T17:54:51;1.77;;;1.23;;
35304;SDS011;26433;48.034;-1.764;2022-10-16T17:59:55;1.85;;;1.27;;
35304;SDS011;26433;48.034;-1.764;2022-10-16T18:04:58;1.17;;;0.90;;
35304;SDS011;26433;48.034;-1.764;2022-10-16T18:10:04;5.10;;;1.02;;
35304;SDS011;26433;48.034;-1.764;2022-10-16T18:15:13;0.93;;;0.70;;
35304;SDS011;26433;48.034;-1.764;2022-10-16T18:20:16;1.08;;;0.98;;
35304;SDS011;26433;48.034;-1.764;2022-10-16T18:30:26;1.73;;;1.17;;
35304;SDS011;26433;48.034;-1.764;2022-10-16T18:35:30;1.20;;;0.88;;
35304;SDS011;26433;48.034;-1.764;2022-10-16T18:40:38;1.48;;;1.37;;
35304;SDS011;26433;48.034;-1.764;2022-10-16T18:45:41;2.03;;;0.88;;
35304;SDS011;26433;48.034;-1.764;2022-10-16T18:50:45;1.13;;;1.00;;
35304;SDS011;26433;48.034;-1.764;2022-10-16T18:55:52;1.23;;;0.88;;
35304;SDS011;26433;48.034;-1.764;2022-10-16T19:01:01;1.23;;;1.02;;
35304;SDS011;26433;48.034;-1.764;2022-10-16T19:06:08;2.45;;;1.45;;
35304;SDS011;26433;48.034;-1.764;2022-10-16T19:11:16;1.67;;;0.88;;
35304;SDS011;26433;48.034;-1.764;2022-10-16T19:16:23;2.45;;;1.45;;
35304;SDS011;26433;48.034;-1.764;2022-10-16T19:21:30;2.40;;;0.95;;
35304;SDS011;26433;48.034;-1.764;2022-10-16T19:26:38;3.10;;;1.58;;
35304;SDS011;26433;48.034;-1.764;2022-10-16T19:31:43;1.52;;;1.17;;
35304;SDS011;26433;48.034;-1.764;2022-10-16T19:36:48;1.02;;;0.93;;
35304;SDS011;26433;48.034;-1.764;2022-10-16T19:41:57;1.15;;;1.05;;
35304;SDS011;26433;48.034;-1.764;2022-10-16T19:47:01;2.30;;;1.42;;
35304;SDS011;26433;48.034;-1.764;2022-10-16T19:52:08;1.05;;;0.70;;
35304;SDS011;26433;48.034;-1.764;2022-10-16T20:02:18;1.30;;;0.70;;
35304;SDS011;26433;48.034;-1.764;2022-10-16T20:07:23;1.33;;;0.93;;
35304;SDS011;26433;48.034;-1.764;2022-10-16T20:12:35;3.62;;;1.45;;
35304;SDS011;26433;48.034;-1.764;2022-10-16T20:17:40;1.52;;;1.02;;
35304;SDS011;26433;48.034;-1.764;2022-10-16T20:22:45;4.43;;;1.40;;
35304;SDS011;26433;48.034;-1.764;2022-10-16T20:27:51;1.27;;;1.17;;
35304;SDS011;26433;48.034;-1.764;2022-10-16T20:32:55;2.58;;;1.62;;
35304;SDS011;26433;48.034;-1.764;2022-10-16T20:38:00;1.65;;;1.00;;
35304;SDS011;26433;48.034;-1.764;2022-10-16T20:43:06;2.53;;;1.48;;
35304;SDS011;26433;48.034;-1.764;2022-10-16T20:48:14;3.20;;;1.30;;
35304;SDS011;26433;48.034;-1.764;2022-10-16T20:53:17;1.10;;;1.00;;
35304;SDS011;26433;48.034;-1.764;2022-10-16T20:58:22;2.57;;;1.30;;
35304;SDS011;26433;48.034;-1.764;2022-10-16T21:03:26;3.20;;;1.10;;
35304;SDS011;26433;48.034;-1.764;2022-10-16T21:08:32;3.08;;;1.37;;
35304;SDS011;26433;48.034;-1.764;2022-10-16T21:13:38;3.58;;;1.40;;
35304;SDS011;26433;48.034;-1.764;2022-10-16T21:18:42;1.80;;;0.77;;
35304;SDS011;26433;48.034;-1.764;2022-10-16T21:23:45;2.07;;;1.13;;
35304;SDS011;26433;48.034;-1.764;2022-10-16T21:28:51;1.05;;;0.93;;
35304;SDS011;26433;48.034;-1.764;2022-10-16T21:33:55;1.10;;;1.00;;
35304;SDS011;26433;48.034;-1.764;2022-10-16T21:38:59;1.43;;;0.93;;
35304;SDS011;26433;48.034;-1.764;2022-10-16T21:44:04;3.47;;;1.48;;
35304;SDS011;26433;48.034;-1.764;2022-10-16T21:49:10;1.83;;;1.42;;
35304;SDS011;26433;48.034;-1.764;2022-10-16T21:54:15;1.23;;;0.93;;
35304;SDS011;26433;48.034;-1.764;2022-10-16T21:59:21;5.87;;;1.55;;
35304;SDS011;26433;48.034;-1.764;2022-10-16T22:04:25;7.65;;;2.00;;
35304;SDS011;26433;48.034;-1.764;2022-10-16T22:09:29;2.80;;;1.37;;
35304;SDS011;26433;48.034;-1.764;2022-10-16T22:14:34;4.00;;;1.87;;
35304;SDS011;26433;48.034;-1.764;2022-10-16T22:19:37;5.68;;;1.05;;
35304;SDS011;26433;48.034;-1.764;2022-10-16T22:24:41;2.27;;;1.30;;
35304;SDS011;26433;48.034;-1.764;2022-10-16T22:29:46;1.67;;;1.20;;
